Terminal Aerodrome Forecast
Issued by NWS Twin Cities, MN

Home | Current Version | Previous Version | Text Only | Print | Product List | Glossary Off
Versions: 1 2 3 4 5 6 7 8 9 10 11 12 13 14 15 16 17 18 19

000
FTUS43 KMPX 010520
TAFSTC
TAF
KSTC 010520Z 0106/0206 14006KT P6SM SCT250
     FM011000 17005KT P6SM -RA SCT050 OVC070
     FM011200 20006KT P6SM VCSH SCT050 SCT090
     FM011400 22008KT P6SM SCT080
     FM012000 31008KT P6SM FEW100=

USA.gov is the U.S. government's official web portal to all federal, state and local government web resources and services.